Time;durP1;ratioP1;P1;durP2;ratioP2;P2;SDS_P1;SDS_P2;PMS_P1;PMS_P2;Temp;Humidity;BMP_temperature;BMP_pressure;BME280_temperature;BME280_humidity;BME280_pressure;Samples;Min_cycle;Max_cycle;Signal;HPM_P1;HPM_P2
2023/05/06 00:44:45;;;;;;;;;;;;;;;;;;;;;
2023/05/06 00:47:43;;;;;;;5.83;2.40;;;;;;;16.20;60.21;98989.03;4881080;29;20580;-88
2023/05/06 00:57:54;;;;;;;3.43;2.37;;;;;;;16.17;60.43;98984.00;4835998;29;20205;-88
2023/05/06 01:00:49;;;;;;;3.87;2.00;;;;;;;16.22;60.45;98975.72;4862474;29;20616;-89
2023/05/06 01:03:53;;;;;;;;;;;;;;;;;;;;;
2023/05/06 01:53:53;;;;;;;4.07;1.97;;;;;;;16.38;59.65;98947.06;4494144;31;20304;-89
2023/05/06 02:04:14;;;;;;;;;;;;;;;;;;;;;
2023/05/06 02:57:25;;;;;;;6.30;4.23;;;;;;;16.54;59.46;98955.53;4579753;31;20337;-89
2023/05/06 04:43:23;;;;;;;;;;;;;;;;;;;;;
2023/05/06 04:46:51;;;;;;;;;;;;;;;;;;;;;
2023/05/06 04:59:48;;;;;;;7.70;3.47;;;;;;;17.47;62.25;99022.94;4769224;30;20211;-90
2023/05/06 05:24:19;;;;;;;;;;;;;;;;;;;;;
2023/05/06 05:31:36;;;;;;;;;;;;;;;;;;;;;
2023/05/06 05:38:12;;;;;;;;;;;;;;;;;;;;;
2023/05/06 05:49:24;;;;;;;5.30;2.63;;;;;;;20.79;51.60;99029.31;4573344;31;20320;-89
2023/05/06 06:53:24;;;;;;;;;;;;;;;;;;;;;
2023/05/06 08:33:19;;;;;;;6.20;1.60;;;;;;;25.56;37.26;99013.84;4770856;30;20199;-90
2023/05/06 09:18:45;;;;;;;3.00;1.10;;;;;;;26.86;33.58;99000.88;5319417;23;20251;-90
2023/05/06 09:29:26;;;;;;;3.83;1.20;;;;;;;26.14;33.75;99003.34;4780440;30;20213;-91
2023/05/06 10:01:05;;;;;;;;;;;;;;;;;;;;;
2023/05/06 10:04:48;;;;;;;;;;;;;;;;;;;;;
2023/05/06 10:07:05;;;;;;;2.37;1.00;;;;;;;26.01;34.34;98995.03;4611797;31;20237;-89
2023/05/06 10:10:05;;;;;;;2.22;0.98;;;;;;;26.05;34.45;98988.25;4612461;31;20645;-89
2023/05/06 10:13:25;;;;;;;;;;;;;;;;;;;;;
2023/05/06 10:16:43;;;;;;;;;;;;;;;;;;;;;
2023/05/06 10:20:04;;;;;;;;;;;;;;;;;;;;;
2023/05/06 10:57:45;;;;;;;;;;;;;;;;;;;;;
2023/05/06 11:15:05;;;;;;;3.23;1.20;;;;;;;25.54;34.50;98991.72;4658189;30;20744;-89
2023/05/06 13:45:44;;;;;;;5.00;1.53;;;;;;;25.87;35.50;98943.94;5411423;23;20270;-88
2023/05/06 13:48:14;;;;;;;2.27;1.23;;;;;;;26.22;34.85;98944.16;4863429;29;20192;-88
2023/05/06 13:50:44;;;;;;;2.63;1.35;;;;;;;26.29;35.87;98952.28;4864075;29;20199;-88
2023/05/06 14:11:12;;;;;;;;;;;;;;;;;;;;;
2023/05/06 14:14:22;;;;;;;4.13;1.40;;;;;;;26.80;33.61;98945.16;4665709;30;20667;-91
2023/05/06 14:30:19;;;;;;;2.30;1.37;;;;;;;26.39;35.70;98960.09;4615068;31;20247;-92
2023/05/06 14:32:45;;;;;;;3.33;1.53;;;;;;;26.32;35.63;98968.03;4627600;30;20203;-93
2023/05/06 14:35:11;;;;;;;3.40;1.13;;;;;;;26.20;34.24;98970.34;4766634;30;20678;-92
2023/05/06 14:37:36;;;;;;;2.33;1.10;;;;;;;26.13;34.54;98971.25;4821048;29;20212;-93
2023/05/06 14:40:03;;;;;;;2.67;0.97;;;;;;;26.19;35.11;98973.22;4845301;29;20191;-91
2023/05/06 14:42:30;;;;;;;3.07;1.17;;;;;;;26.08;35.29;98971.78;4854301;29;20691;-93
2023/05/06 14:44:55;;;;;;;3.45;1.27;;;;;;;26.14;35.54;98965.72;4863434;29;20195;-94
2023/05/06 14:47:22;;;;;;;2.55;1.13;;;;;;;26.14;35.22;98965.72;4879639;29;20212;-93
2023/05/06 14:49:49;;;;;;;2.00;1.13;;;;;;;26.11;36.28;98960.69;4863531;29;20187;-93
2023/05/06 14:52:16;;;;;;;6.23;1.40;;;;;;;26.03;35.36;98967.97;4863620;29;20188;-93
2023/05/06 14:54:43;;;;;;;3.28;1.23;;;;;;;26.03;35.62;98963.44;4848612;29;20188;-93
2023/05/06 14:57:10;;;;;;;3.30;1.37;;;;;;;26.03;35.68;98966.13;4863811;29;20626;-93
2023/05/06 14:59:37;;;;;;;3.27;1.40;;;;;;;25.93;36.26;98975.47;4847283;29;20192;-95
2023/05/06 15:02:08;;;;;;;3.10;1.20;;;;;;;25.72;36.09;98992.25;4845174;29;20191;-95
2023/05/06 15:04:35;;;;;;;3.55;1.58;;;;;;;25.41;36.92;98988.78;4845441;29;20180;-94
2023/05/06 15:07:05;;;;;;;3.23;1.27;;;;;;;25.34;37.76;98995.88;4845080;29;20258;-95
2023/05/06 15:09:31;;;;;;;3.10;1.50;;;;;;;24.59;39.34;99000.03;4855906;29;20195;-92
2023/05/06 15:12:07;;;;;;;3.60;1.10;;;;;;;24.24;40.28;99004.00;4864672;29;20188;-93
2023/05/06 15:14:37;;;;;;;4.07;1.50;;;;;;;23.96;41.54;99016.03;4864119;29;20191;-95
2023/05/06 15:17:04;;;;;;;2.73;1.17;;;;;;;23.53;45.04;99018.00;4864504;29;20250;-93
2023/05/06 15:19:32;;;;;;;3.53;1.40;;;;;;;22.73;50.68;99023.94;4863484;29;20184;-94
2023/05/06 15:22:00;;;;;;;8.77;1.73;;;;;;;21.78;55.93;99034.56;4864072;29;20184;-94
2023/05/06 15:24:27;;;;;;;4.77;1.83;;;;;;;21.61;58.34;99029.25;4863762;29;20577;-93
2023/05/06 15:27:03;;;;;;;3.70;1.63;;;;;;;21.70;59.11;99022.97;4863544;29;20222;-93
2023/05/06 15:29:29;;;;;;;2.90;1.37;;;;;;;21.34;58.29;99012.31;4863625;29;20187;-94
2023/05/06 15:31:55;;;;;;;3.50;1.57;;;;;;;21.20;58.37;99012.03;4863517;29;20206;-94
2023/05/06 15:34:21;;;;;;;3.03;1.97;;;;;;;21.61;57.65;99006.09;4863256;29;20179;-94
2023/05/06 15:36:52;;;;;;;4.07;1.83;;;;;;;21.63;57.75;98997.91;4876785;29;20188;-93
2023/05/06 15:39:19;;;;;;;3.70;1.53;;;;;;;21.97;57.46;99001.56;4844962;29;20192;-93
2023/05/06 15:41:46;;;;;;;3.93;2.10;;;;;;;22.24;56.81;98990.75;4845058;29;20249;-93
2023/05/06 15:44:11;;;;;;;5.60;2.10;;;;;;;22.38;57.54;98989.34;4846272;29;20662;-93
2023/05/06 15:46:38;;;;;;;2.70;1.60;;;;;;;22.47;57.95;98983.88;4859138;29;20252;-93
2023/05/06 15:49:05;;;;;;;3.93;1.70;;;;;;;22.58;57.45;98980.09;4866873;29;20219;-93
2023/05/06 15:51:31;;;;;;;6.10;1.93;;;;;;;22.56;55.48;98979.41;4850871;29;20199;-93
2023/05/06 15:53:58;;;;;;;3.77;1.63;;;;;;;22.65;54.11;98981.13;4866633;29;20536;-92
2023/05/06 15:56:24;;;;;;;2.77;1.50;;;;;;;22.81;53.50;98985.72;4866596;29;20194;-94
2023/05/06 15:58:51;;;;;;;4.77;1.60;;;;;;;22.98;53.25;98979.44;4866427;29;20219;-92
2023/05/06 16:01:18;;;;;;;5.73;2.27;;;;;;;23.09;53.53;98987.13;4854772;29;20220;-92
2023/05/06 16:03:45;;;;;;;4.00;2.40;;;;;;;23.17;53.92;98979.13;4864590;29;20244;-92
2023/05/06 16:06:10;;;;;;;4.30;1.50;;;;;;;23.26;54.51;98988.84;4856787;29;20606;-93
2023/05/06 16:08:37;;;;;;;3.30;1.60;;;;;;;23.35;54.41;98985.19;4866315;29;20202;-92
2023/05/06 16:11:04;;;;;;;7.90;2.00;;;;;;;23.39;53.74;98985.72;4882462;29;20301;-92
2023/05/06 16:13:30;;;;;;;4.03;1.60;;;;;;;23.41;53.92;98981.03;4882977;29;20207;-92
2023/05/06 16:15:56;;;;;;;3.70;2.00;;;;;;;23.39;54.41;98981.22;4882929;29;20215;-92
2023/05/06 16:18:23;;;;;;;5.03;1.90;;;;;;;23.42;54.42;98983.56;4864048;29;20188;-92
2023/05/06 16:20:50;;;;;;;4.70;1.70;;;;;;;23.44;54.97;98978.03;4847657;29;20276;-92
2023/05/06 16:23:18;;;;;;;5.07;2.00;;;;;;;23.44;56.05;98976.22;4878354;29;20259;-92
2023/05/06 16:25:45;;;;;;;5.53;2.23;;;;;;;23.46;56.18;98982.22;4862952;29;20217;-92
2023/05/06 16:28:10;;;;;;;4.53;2.10;;;;;;;23.47;56.44;98986.59;4864107;29;20211;-91
2023/05/06 16:30:39;;;;;;;3.10;1.90;;;;;;;23.47;57.33;98988.41;4865750;29;20698;-92
2023/05/06 16:33:05;;;;;;;4.33;2.03;;;;;;;23.44;57.40;98986.06;4882011;29;20199;-91
2023/05/06 16:35:32;;;;;;;7.57;2.00;;;;;;;23.41;57.15;98989.91;4865727;29;20187;-91
2023/05/06 16:37:57;;;;;;;2.37;1.43;;;;;;;23.41;56.23;98983.72;4870745;29;20679;-91
2023/05/06 16:40:23;;;;;;;3.77;1.60;;;;;;;23.40;55.89;98988.22;4846068;29;20192;-91
2023/05/06 16:42:49;;;;;;;4.33;2.33;;;;;;;23.37;56.00;98987.75;4862304;29;20217;-91
2023/05/06 16:45:15;;;;;;;5.77;1.80;;;;;;;23.32;56.23;98985.53;4846046;29;20204;-91
2023/05/06 16:47:42;;;;;;;5.50;2.00;;;;;;;23.25;56.09;98996.03;4861997;29;20215;-91
2023/05/06 16:50:08;;;;;;;8.57;2.43;;;;;;;23.21;55.76;98988.53;4862131;29;20702;-92
2023/05/06 16:52:34;;;;;;;2.87;1.73;;;;;;;23.15;55.63;98999.84;4862537;29;20181;-92
2023/05/06 16:54:59;;;;;;;6.07;1.70;;;;;;;23.06;55.20;99008.88;4862424;29;20193;-92
2023/05/06 16:57:24;;;;;;;5.13;2.57;;;;;;;22.95;55.79;99011.84;4847667;29;20184;-92
2023/05/06 16:59:50;;;;;;;5.53;1.87;;;;;;;22.90;54.78;99012.31;4863003;29;20184;-91
2023/05/06 17:02:15;;;;;;;6.63;1.93;;;;;;;22.80;54.68;99016.13;4862960;29;20181;-92
2023/05/06 17:04:41;;;;;;;8.90;1.70;;;;;;;22.72;54.22;99008.06;4846999;29;20192;-92
2023/05/06 17:07:09;;;;;;;3.37;1.80;;;;;;;22.59;53.14;99019.13;4846556;29;20579;-91
2023/05/06 17:09:35;;;;;;;3.10;1.40;;;;;;;22.57;52.19;99023.81;4846825;29;20266;-91
2023/05/06 17:12:01;;;;;;;4.17;1.60;;;;;;;22.51;51.78;99025.28;4846598;29;20224;-91
2023/05/06 17:14:26;;;;;;;4.00;2.03;;;;;;;22.51;52.64;99021.78;4862728;29;20184;-91
2023/05/06 17:16:52;;;;;;;3.70;1.87;;;;;;;22.53;53.12;99026.00;4846488;29;20185;-91
2023/05/06 17:19:17;;;;;;;7.53;2.60;;;;;;;22.45;52.39;99027.75;4863255;29;20181;-91
2023/05/06 17:21:44;;;;;;;7.80;2.27;;;;;;;22.34;52.29;99031.53;4846445;29;20208;-91
2023/05/06 17:24:09;;;;;;;6.33;2.07;;;;;;;22.18;52.50;99031.44;4863328;29;20198;-92
2023/05/06 17:26:36;;;;;;;4.90;2.20;;;;;;;22.04;52.74;99034.66;4862248;29;20212;-91
2023/05/06 17:29:01;;;;;;;4.23;1.70;;;;;;;21.97;52.05;99033.59;4862907;29;20202;-92
2023/05/06 17:31:27;;;;;;;3.60;1.67;;;;;;;21.92;52.03;99047.41;4846026;29;20260;-91
2023/05/06 17:33:52;;;;;;;8.17;2.10;;;;;;;21.82;51.92;99053.78;4846061;29;20188;-91
2023/05/06 17:36:19;;;;;;;4.50;2.20;;;;;;;21.74;52.27;99057.22;4846142;29;20184;-91
2023/05/06 17:38:45;;;;;;;4.33;1.83;;;;;;;21.67;52.63;99058.00;4862549;29;20172;-91
2023/05/06 17:41:11;;;;;;;4.90;2.40;;;;;;;21.67;53.10;99048.13;4862724;29;20538;-91
2023/05/06 17:43:36;;;;;;;6.43;2.07;;;;;;;21.63;52.86;99053.94;4864434;29;20231;-91
2023/05/06 17:46:02;;;;;;;8.43;2.20;;;;;;;21.62;53.03;99060.28;4863975;29;20236;-92
2023/05/06 17:48:27;;;;;;;3.87;2.37;;;;;;;21.54;53.28;99061.00;4880749;29;20270;-91
2023/05/06 17:50:52;;;;;;;3.40;1.80;;;;;;;21.61;52.61;99070.09;4864059;29;20254;-90
2023/05/06 17:53:18;;;;;;;3.90;1.93;;;;;;;21.65;52.42;99078.63;4864899;29;20195;-90
2023/05/06 17:55:43;;;;;;;3.23;1.50;;;;;;;21.61;52.63;99079.94;4864580;29;20611;-90
2023/05/06 17:58:09;;;;;;;4.43;1.97;;;;;;;21.59;53.46;99079.25;4880416;29;20176;-91
2023/05/06 18:00:35;;;;;;;5.20;1.80;;;;;;;21.60;52.75;99081.75;4864005;29;20191;-91
2023/05/06 18:03:01;;;;;;;5.63;1.80;;;;;;;21.63;52.96;99078.78;4863911;29;20187;-90
2023/05/06 18:05:27;;;;;;;3.43;1.77;;;;;;;21.62;53.13;99086.97;4880238;29;20190;-91
2023/05/06 18:07:52;;;;;;;4.07;1.80;;;;;;;21.56;53.49;99098.22;4879805;29;20560;-90
2023/05/06 18:10:18;;;;;;;3.03;1.50;;;;;;;21.54;53.13;99106.38;4863694;29;20191;-91
2023/05/06 18:12:44;;;;;;;3.80;2.10;;;;;;;21.51;52.82;99108.50;4880068;29;20180;-90
2023/05/06 18:15:10;;;;;;;4.63;2.43;;;;;;;21.39;53.13;99114.03;4880255;29;20194;-90
2023/05/06 18:17:35;;;;;;;5.43;1.87;;;;;;;21.35;53.21;99115.34;4879998;29;20172;-90
2023/05/06 18:20:01;;;;;;;3.63;1.70;;;;;;;21.28;53.51;99116.06;4863554;29;20636;-91
2023/05/06 18:22:27;;;;;;;5.17;2.60;;;;;;;21.35;52.91;99112.69;4864391;29;20192;-91
2023/05/06 18:24:53;;;;;;;3.90;1.80;;;;;;;21.43;52.81;99114.59;4863581;29;20222;-90
2023/05/06 18:27:20;;;;;;;3.33;1.77;;;;;;;21.43;53.16;99110.06;4863332;29;20233;-91
2023/05/06 18:29:46;;;;;;;3.43;1.67;;;;;;;21.45;52.51;99112.59;4863462;29;20206;-91
2023/05/06 18:32:12;;;;;;;3.70;1.43;;;;;;;21.44;52.23;99117.09;4863810;29;20184;-91
2023/05/06 18:34:37;;;;;;;2.40;1.40;;;;;;;21.37;53.04;99124.03;4880458;29;20219;-91
2023/05/06 18:37:03;;;;;;;3.20;1.57;;;;;;;21.44;52.80;99122.44;4863388;29;20278;-91
2023/05/06 18:39:28;;;;;;;8.33;2.23;;;;;;;21.32;53.46;99123.63;4864330;29;20188;-91
2023/05/06 18:41:54;;;;;;;3.20;1.80;;;;;;;21.28;53.08;99127.56;4863372;29;20179;-90
2023/05/06 18:44:19;;;;;;;5.93;2.23;;;;;;;21.32;52.94;99134.31;4863642;29;20673;-91
2023/05/06 18:46:45;;;;;;;6.63;2.03;;;;;;;21.29;53.07;99133.75;4864002;29;20219;-90
2023/05/06 18:49:12;;;;;;;5.37;3.10;;;;;;;21.22;53.01;99144.19;4879610;29;20194;-91
2023/05/06 18:51:38;;;;;;;6.63;2.83;;;;;;;21.13;53.70;99150.38;4857186;29;20298;-90
2023/05/06 18:54:04;;;;;;;6.57;2.90;;;;;;;21.19;52.86;99144.47;4861381;29;20630;-92
2023/05/06 18:56:29;;;;;;;3.27;1.40;;;;;;;21.16;53.18;99150.09;4845016;29;20252;-91
2023/05/06 18:58:55;;;;;;;4.37;1.90;;;;;;;21.23;53.41;99153.84;4861640;29;20202;-91
2023/05/06 19:01:20;;;;;;;8.20;1.40;;;;;;;21.22;53.40;99154.84;4863215;29;20198;-91
2023/05/06 19:03:46;;;;;;;4.90;1.70;;;;;;;21.23;53.15;99153.84;4879662;29;20274;-91
2023/05/06 19:06:11;;;;;;;10.43;2.27;;;;;;;21.25;53.35;99159.03;4879395;29;20194;-91
2023/05/06 19:08:37;;;;;;;6.10;2.37;;;;;;;21.26;52.99;99158.03;4879539;29;20184;-91
2023/05/06 19:11:03;;;;;;;5.27;2.33;;;;;;;21.32;52.71;99166.31;4867722;29;20239;-91
2023/05/06 19:13:29;;;;;;;3.30;1.43;;;;;;;21.36;52.85;99166.81;4860862;29;20543;-91
2023/05/06 19:15:55;;;;;;;6.83;1.97;;;;;;;21.35;52.68;99173.16;4861077;29;20192;-92
2023/05/06 19:18:21;;;;;;;8.60;2.20;;;;;;;21.33;52.74;99170.63;4844744;29;20195;-91
2023/05/06 19:20:46;;;;;;;3.00;1.70;;;;;;;21.35;52.47;99168.69;4848296;29;20184;-91
2023/05/06 19:23:12;;;;;;;3.93;1.63;;;;;;;21.44;53.47;99180.25;4869325;29;20198;-91
2023/05/06 19:25:38;;;;;;;4.70;1.77;;;;;;;21.35;53.35;99179.34;4866617;29;20548;-91
2023/05/06 19:28:04;;;;;;;5.13;1.80;;;;;;;21.40;53.56;99186.88;4865831;29;20648;-91
2023/05/06 19:30:31;;;;;;;7.50;2.00;;;;;;;21.43;53.95;99186.59;4864463;29;20184;-91
2023/05/06 19:32:58;;;;;;;3.83;1.83;;;;;;;21.49;53.61;99191.31;4864540;29;20267;-91
2023/05/06 19:35:23;;;;;;;5.33;2.03;;;;;;;21.53;53.62;99191.88;4864785;29;20267;-90
2023/05/06 19:37:49;;;;;;;6.03;2.27;;;;;;;21.53;53.33;99197.22;4864196;29;20719;-91
2023/05/06 19:40:14;;;;;;;5.80;1.90;;;;;;;21.52;52.97;99199.03;4864130;29;20252;-91
2023/05/06 19:42:40;;;;;;;4.00;1.93;;;;;;;21.48;53.25;99207.50;4864521;29;20184;-90
2023/05/06 19:45:08;;;;;;;4.70;2.20;;;;;;;21.34;52.47;99206.13;4863845;29;20208;-90
2023/05/06 19:47:34;;;;;;;5.50;1.77;;;;;;;21.20;52.96;99207.44;4864426;29;20600;-90
2023/05/06 19:49:59;;;;;;;8.10;2.20;;;;;;;21.17;52.35;99207.72;4847851;29;20227;-91
2023/05/06 19:52:29;;;;;;;5.33;1.77;;;;;;;21.00;51.39;99210.28;4847635;29;20643;-91
2023/05/06 19:54:54;;;;;;;4.40;1.87;;;;;;;20.71;51.41;99207.69;4847633;29;20196;-90
2023/05/06 19:57:20;;;;;;;4.20;1.70;;;;;;;20.63;50.29;99216.38;4863865;29;20521;-90
2023/05/06 19:59:45;;;;;;;5.90;1.50;;;;;;;20.74;50.49;99223.38;4863853;29;20635;-91
2023/05/06 20:02:15;;;;;;;2.57;1.37;;;;;;;20.51;50.51;99216.69;4863769;29;20191;-90
2023/05/06 20:04:42;;;;;;;3.30;1.40;;;;;;;20.55;51.10;99224.25;4863599;29;20608;-91
2023/05/06 20:07:09;;;;;;;2.23;1.20;;;;;;;20.45;51.38;99230.56;4863641;29;20204;-90
2023/05/06 20:09:35;;;;;;;3.70;1.40;;;;;;;20.66;50.87;99225.91;4863734;29;20184;-90
2023/05/06 20:12:01;;;;;;;3.87;1.40;;;;;;;20.71;50.65;99226.34;4863573;29;20190;-90
2023/05/06 20:14:27;;;;;;;5.00;1.60;;;;;;;20.68;50.93;99226.63;4863486;29;20627;-91
2023/05/06 20:16:52;;;;;;;3.30;1.53;;;;;;;20.84;51.20;99224.22;4863510;29;20184;-91
2023/05/06 20:19:20;;;;;;;3.90;2.07;;;;;;;20.64;51.41;99228.75;4863746;29;20204;-90
2023/05/06 20:21:46;;;;;;;4.53;1.80;;;;;;;20.56;51.61;99225.09;4847199;29;20710;-90
2023/05/06 20:24:12;;;;;;;6.10;1.60;;;;;;;20.35;51.39;99232.38;4863641;29;20185;-89
2023/05/06 20:26:37;;;;;;;4.47;1.90;;;;;;;19.97;52.48;99233.97;4863327;29;20312;-90
2023/05/06 20:29:03;;;;;;;9.37;2.00;;;;;;;20.14;51.83;99241.31;4863508;29;20647;-90
2023/05/06 20:31:28;;;;;;;6.27;1.67;;;;;;;19.53;52.99;99243.25;4863480;29;20218;-90
2023/05/06 20:33:54;;;;;;;4.90;1.80;;;;;;;19.38;53.50;99241.09;4847036;29;20189;-91
2023/05/06 20:36:20;;;;;;;5.67;1.90;;;;;;;19.59;53.55;99247.19;4863099;29;20516;-91
2023/05/06 20:38:47;;;;;;;5.40;1.93;;;;;;;19.39;53.61;99248.09;4879899;29;20221;-90
2023/05/06 20:41:13;;;;;;;4.93;1.93;;;;;;;19.45;54.17;99258.16;4881579;29;20179;-90
2023/05/06 20:43:38;;;;;;;3.37;1.60;;;;;;;19.71;53.36;99259.41;4882144;29;20194;-90
2023/05/06 20:46:04;;;;;;;4.70;2.00;;;;;;;19.63;53.31;99256.56;4865387;29;20207;-91
2023/05/06 20:48:30;;;;;;;5.13;1.57;;;;;;;19.46;53.86;99260.72;4865091;29;20199;-90
2023/05/06 20:50:56;;;;;;;3.70;1.90;;;;;;;19.66;53.87;99258.97;4865638;29;20191;-91
2023/05/06 20:53:22;;;;;;;4.27;2.10;;;;;;;19.50;53.91;99258.59;4881997;29;20199;-90
2023/05/06 20:55:47;;;;;;;4.37;1.93;;;;;;;19.62;54.02;99257.56;4881770;29;20242;-90
2023/05/06 20:58:12;;;;;;;5.17;1.93;;;;;;;19.53;53.96;99261.00;4881382;29;20262;-91
2023/05/06 21:00:38;;;;;;;11.03;5.53;;;;;;;19.37;54.26;99260.63;4864637;29;20254;-90
2023/05/06 21:03:03;;;;;;;10.20;4.00;;;;;;;19.55;53.89;99259.06;4858470;29;20514;-91
2023/05/06 21:05:29;;;;;;;15.17;5.97;;;;;;;19.66;53.52;99266.94;4846981;29;20255;-90
2023/05/06 21:07:54;;;;;;;71.53;18.67;;;;;;;19.69;53.59;99256.03;4862473;29;20200;-90
2023/05/06 21:10:20;;;;;;;28.27;6.93;;;;;;;19.86;53.48;99268.72;4846229;29;20327;-91
2023/05/06 21:12:46;;;;;;;21.93;5.07;;;;;;;19.52;53.48;99269.97;4862688;29;20283;-90
2023/05/06 21:15:12;;;;;;;9.93;2.60;;;;;;;19.59;54.06;99271.13;4862576;29;20690;-91
2023/05/06 21:17:37;;;;;;;19.10;5.03;;;;;;;19.65;54.33;99264.44;4862413;29;20188;-92
2023/05/06 21:20:03;;;;;;;7.73;2.83;;;;;;;19.72;53.63;99260.25;4862675;29;20633;-90
2023/05/06 21:22:28;;;;;;;15.60;4.13;;;;;;;19.79;53.21;99256.91;4846183;29;20188;-90
2023/05/06 21:24:54;;;;;;;13.43;4.13;;;;;;;19.88;53.43;99256.09;4862406;29;20670;-91
2023/05/06 21:27:20;;;;;;;7.03;2.60;;;;;;;19.84;53.27;99261.81;4853355;29;20223;-92
2023/05/06 21:29:45;;;;;;;14.03;4.17;;;;;;;19.90;53.20;99254.13;4864448;29;20656;-91
2023/05/06 21:32:11;;;;;;;10.30;3.97;;;;;;;19.96;53.54;99258.94;4864438;29;20191;-91
2023/05/06 21:34:36;;;;;;;8.10;2.27;;;;;;;20.03;53.56;99262.72;4880794;29;20199;-90
2023/05/06 21:37:02;;;;;;;11.90;2.93;;;;;;;20.03;53.81;99276.03;4864487;29;20207;-91
2023/05/06 21:39:27;;;;;;;6.40;2.03;;;;;;;19.82;53.70;99277.91;4880723;29;20638;-92
2023/05/06 21:41:54;;;;;;;18.90;4.30;;;;;;;19.67;53.71;99286.41;4867931;29;20673;-91
2023/05/06 21:44:20;;;;;;;11.17;3.87;;;;;;;19.71;53.90;99287.81;4870501;29;20203;-91
2023/05/06 21:46:47;;;;;;;39.07;8.10;;;;;;;19.70;54.20;99283.47;4874746;29;20660;-91
2023/05/06 21:49:14;;;;;;;7.30;3.00;;;;;;;19.19;54.42;99288.78;4881041;29;20243;-91
2023/05/06 21:51:39;;;;;;;8.37;2.73;;;;;;;18.75;55.55;99289.88;4880453;29;20717;-91
2023/05/06 21:54:05;;;;;;;5.67;1.80;;;;;;;18.56;55.91;99293.22;4880374;29;20215;-90
2023/05/06 21:56:32;;;;;;;5.80;2.03;;;;;;;18.86;54.89;99282.72;4869689;29;20618;-90
2023/05/06 21:58:58;;;;;;;8.37;2.93;;;;;;;19.05;54.54;99281.97;4868916;29;20627;-90
2023/05/06 22:01:25;;;;;;;6.57;1.77;;;;;;;18.87;55.26;99283.53;4868201;29;20265;-90
2023/05/06 22:03:52;;;;;;;3.63;1.70;;;;;;;18.75;55.07;99289.88;4880072;29;20257;-90
2023/05/06 22:06:19;;;;;;;5.70;1.73;;;;;;;18.89;53.97;99293.06;4859826;29;20202;-91
2023/05/06 22:08:46;;;;;;;4.33;1.57;;;;;;;18.91;54.49;99299.09;4861213;29;20226;-90
2023/05/06 22:11:13;;;;;;;5.00;1.93;;;;;;;19.04;54.34;99298.91;4870688;29;20187;-91
2023/05/06 22:13:39;;;;;;;3.47;1.50;;;;;;;19.09;54.27;99287.88;4862845;29;20191;-90
2023/05/06 22:16:06;;;;;;;5.67;1.83;;;;;;;19.05;54.30;99287.28;4873969;29;20187;-91
2023/05/06 22:18:32;;;;;;;2.97;1.37;;;;;;;19.20;54.13;99298.44;4863741;29;20190;-91
2023/05/06 22:20:58;;;;;;;4.73;1.90;;;;;;;19.26;53.82;99305.91;4863962;29;20191;-91
2023/05/06 22:23:24;;;;;;;2.77;1.33;;;;;;;19.31;53.84;99303.69;4864357;29;20268;-91
2023/05/06 22:25:53;;;;;;;6.73;1.70;;;;;;;19.33;53.12;99299.09;4880209;29;20591;-90
2023/05/06 22:28:20;;;;;;;4.87;2.10;;;;;;;19.36;52.98;99306.81;4863891;29;20271;-90
2023/05/06 22:30:47;;;;;;;3.80;1.70;;;;;;;19.35;52.93;99305.94;4863346;29;20278;-91
2023/05/06 22:33:13;;;;;;;7.37;1.80;;;;;;;19.38;52.96;99304.88;4863485;29;20194;-91
2023/05/06 22:35:39;;;;;;;4.30;1.73;;;;;;;19.41;52.78;99299.31;4864292;29;20578;-90
2023/05/06 22:38:05;;;;;;;6.53;2.07;;;;;;;19.36;52.97;99306.81;4863368;29;20188;-90
2023/05/06 22:40:32;;;;;;;3.53;1.67;;;;;;;19.30;53.61;99309.97;4863051;29;20219;-90
2023/05/06 22:42:58;;;;;;;5.60;1.53;;;;;;;19.25;54.06;99298.91;4863362;29;20196;-90
2023/05/06 22:45:25;;;;;;;7.73;2.30;;;;;;;19.20;54.07;99307.28;4863510;29;20257;-90
2023/05/06 22:47:52;;;;;;;6.63;2.10;;;;;;;19.17;54.46;99307.53;4863370;29;20350;-91
2023/05/06 22:50:17;;;;;;;5.43;1.40;;;;;;;19.11;54.47;99297.41;4863079;29;20201;-91
2023/05/06 22:52:44;;;;;;;3.27;1.73;;;;;;;19.02;54.87;99304.34;4862769;29;20673;-90
2023/05/06 22:55:09;;;;;;;7.13;1.77;;;;;;;18.96;55.26;99293.41;4879684;29;20184;-89
2023/05/06 22:57:35;;;;;;;4.20;1.77;;;;;;;18.94;55.24;99293.53;4879597;29;20549;-90
2023/05/06 23:00:02;;;;;;;3.47;1.50;;;;;;;18.93;55.33;99299.81;4863106;29;20175;-90
2023/05/06 23:02:28;;;;;;;5.03;1.57;;;;;;;18.96;55.01;99296.91;4863950;29;20193;-91
2023/05/06 23:04:55;;;;;;;3.57;1.63;;;;;;;18.95;54.88;99295.22;4858669;29;20184;-91
2023/05/06 23:07:21;;;;;;;4.87;1.70;;;;;;;18.86;55.36;99288.03;4845301;29;20548;-90
2023/05/06 23:09:48;;;;;;;8.50;1.90;;;;;;;18.69;56.27;99285.94;4861458;29;20199;-91
2023/05/06 23:12:14;;;;;;;5.07;1.80;;;;;;;18.57;56.89;99284.31;4852941;29;20601;-90
2023/05/06 23:14:40;;;;;;;2.30;1.20;;;;;;;18.47;57.10;99280.72;4863054;29;20641;-90
2023/05/06 23:17:05;;;;;;;3.87;2.13;;;;;;;18.36;57.40;99278.94;4879588;29;20199;-90
2023/05/06 23:19:32;;;;;;;3.67;1.53;;;;;;;18.33;57.75;99273.88;4863547;29;20188;-90
2023/05/06 23:21:58;;;;;;;3.63;1.60;;;;;;;18.29;57.64;99276.91;4862935;29;20215;-90
2023/05/06 23:24:24;;;;;;;3.37;1.80;;;;;;;18.30;57.51;99273.25;4863505;29;20266;-90
2023/05/06 23:26:50;;;;;;;4.57;1.77;;;;;;;18.31;56.95;99272.31;4879098;29;20208;-90
2023/05/06 23:29:17;;;;;;;7.20;1.73;;;;;;;18.29;56.93;99267.09;4863398;29;20578;-92
2023/05/06 23:31:42;;;;;;;4.73;1.63;;;;;;;18.29;56.66;99268.94;4863887;29;20188;-91
2023/05/06 23:34:08;;;;;;;5.73;1.60;;;;;;;18.24;56.87;99258.69;4863259;29;20194;-90
2023/05/06 23:36:33;;;;;;;5.13;1.70;;;;;;;18.15;57.28;99255.94;4862808;29;20180;-90
2023/05/06 23:38:59;;;;;;;3.50;1.87;;;;;;;18.05;57.80;99253.22;4862813;29;20634;-90
2023/05/06 23:41:24;;;;;;;7.20;1.90;;;;;;;18.01;58.13;99258.88;4862785;29;20666;-90
2023/05/06 23:43:51;;;;;;;6.30;2.23;;;;;;;17.92;58.57;99262.28;4849111;29;20204;-91
2023/05/06 23:46:16;;;;;;;4.33;2.00;;;;;;;17.78;58.84;99261.56;4844466;29;20223;-90
2023/05/06 23:48:43;;;;;;;4.80;2.27;;;;;;;17.76;59.22;99254.72;4844718;29;20643;-91
2023/05/06 23:51:10;;;;;;;4.07;2.23;;;;;;;17.76;59.19;99257.38;4844266;29;20184;-90
2023/05/06 23:53:36;;;;;;;4.83;1.97;;;;;;;17.75;59.00;99264.47;4844079;29;20275;-90
2023/05/06 23:56:01;;;;;;;5.57;2.00;;;;;;;17.68;59.07;99260.63;4860489;29;20300;-90
2023/05/06 23:58:27;;;;;;;5.40;2.23;;;;;;;17.56;59.58;99255.44;4860504;29;20231;-91
